createdAt,value
2023-11-10T00:03:59.365Z,3.15
2023-11-10T00:09:01.785Z,3.83
2023-11-10T00:14:11.278Z,3.92
2023-11-10T00:19:17.438Z,2.53
2023-11-10T00:24:20.082Z,2.38
2023-11-10T00:29:22.322Z,5.68
2023-11-10T00:34:25.953Z,5.43
2023-11-10T00:39:28.788Z,5.07
2023-11-10T00:44:31.026Z,2.20
2023-11-10T00:49:34.602Z,5.82
2023-11-10T00:54:36.821Z,4.22
2023-11-10T00:59:39.015Z,2.42
2023-11-10T01:04:43.317Z,2.90
2023-11-10T01:09:45.564Z,3.95
2023-11-10T01:14:47.868Z,2.45
2023-11-10T01:19:51.393Z,5.53
2023-11-10T01:24:53.721Z,2.65
2023-11-10T01:29:56.012Z,2.17
2023-11-10T01:35:00.037Z,4.72
2023-11-10T01:40:03.948Z,2.58
2023-11-10T01:45:07.159Z,3.88
2023-11-10T01:50:11.905Z,2.65
2023-11-10T01:55:16.965Z,6.72
2023-11-10T02:00:22.861Z,2.75
2023-11-10T02:05:26.842Z,2.35
2023-11-10T02:10:29.495Z,4.35
2023-11-10T02:15:31.877Z,2.63
2023-11-10T02:20:35.432Z,2.50
2023-11-10T02:25:39.225Z,4.85
2023-11-10T02:30:41.433Z,2.40
2023-11-10T02:35:43.703Z,4.68
2023-11-10T02:40:47.250Z,3.28
2023-11-10T02:45:49.534Z,2.58
2023-11-10T02:50:52.166Z,3.88
2023-11-10T02:55:55.776Z,6.03
2023-11-10T03:00:58.033Z,3.92
2023-11-10T03:06:01.167Z,3.15
2023-11-10T03:11:05.201Z,5.13
2023-11-10T03:16:08.194Z,4.25
2023-11-10T03:21:17.424Z,3.08
2023-11-10T03:26:21.140Z,3.45
2023-11-10T03:31:23.537Z,5.28
2023-11-10T03:36:25.847Z,3.20
2023-11-10T03:41:29.395Z,4.43
2023-11-10T03:46:31.596Z,3.33
2023-11-10T03:51:33.939Z,3.30
2023-11-10T03:56:37.540Z,3.33
2023-11-10T04:01:40.467Z,2.63
2023-11-10T04:06:43.162Z,2.95
2023-11-10T04:11:46.846Z,2.28
2023-11-10T04:16:49.857Z,2.92
2023-11-10T04:21:52.132Z,3.10
2023-11-10T04:26:56.303Z,3.72
2023-11-10T04:31:58.536Z,5.63
2023-11-10T04:37:00.835Z,2.95
2023-11-10T04:42:04.460Z,5.22
2023-11-10T04:47:06.991Z,3.45
2023-11-10T04:52:09.227Z,4.43
2023-11-10T04:57:12.911Z,3.42
2023-11-10T05:02:15.093Z,2.17
2023-11-10T05:07:17.302Z,3.08
2023-11-10T05:12:21.332Z,2.92
2023-11-10T05:17:23.536Z,3.80
2023-11-10T05:22:25.757Z,2.50
2023-11-10T05:27:29.987Z,2.90
2023-11-10T05:32:32.777Z,3.13
2023-11-10T05:37:35.074Z,2.38
2023-11-10T05:42:39.164Z,3.17
2023-11-10T05:47:41.441Z,2.60
2023-11-10T05:52:43.759Z,3.92
2023-11-10T05:57:48.322Z,1.45
2023-11-10T06:02:51.743Z,3.10
2023-11-10T06:07:55.555Z,2.63
2023-11-10T06:12:59.234Z,1.90
2023-11-10T06:18:01.509Z,3.95
2023-11-10T06:23:04.068Z,5.30
2023-11-10T06:28:07.778Z,3.53
2023-11-10T06:33:10.056Z,3.30
2023-11-10T06:38:12.284Z,2.65
2023-11-10T06:43:15.831Z,4.15
2023-11-10T06:48:18.122Z,2.45
2023-11-10T06:53:21.460Z,4.45
2023-11-10T06:58:25.036Z,2.50
2023-11-10T07:03:27.356Z,2.38
2023-11-10T07:08:31.327Z,4.65
2023-11-10T07:13:34.898Z,2.85
2023-11-10T07:18:37.207Z,2.17
2023-11-10T07:23:39.414Z,2.83
2023-11-10T07:28:42.961Z,3.78
2023-11-10T07:33:45.598Z,3.10
2023-11-10T07:38:47.898Z,5.00
2023-11-10T07:43:51.610Z,3.55
2023-11-10T07:48:53.874Z,1.83
2023-11-10T07:53:56.103Z,6.10
2023-11-10T07:58:59.673Z,2.47
2023-11-10T08:04:02.459Z,4.20
2023-11-10T08:09:05.371Z,2.63
2023-11-10T08:14:08.917Z,2.45
2023-11-10T08:19:11.547Z,3.83
2023-11-10T08:24:13.752Z,2.60
2023-11-10T08:29:17.359Z,4.03
2023-11-10T08:34:22.264Z,3.42
2023-11-10T08:39:24.520Z,2.63
2023-11-10T08:44:28.224Z,2.95
2023-11-10T08:49:30.638Z,4.15
2023-11-10T08:54:34.853Z,3.35
2023-11-10T08:59:39.011Z,4.35
2023-11-10T09:04:41.354Z,3.72
2023-11-10T09:09:44.695Z,3.83
2023-11-10T09:14:48.472Z,4.07
2023-11-10T09:19:50.920Z,4.45
2023-11-10T09:24:53.194Z,3.47
2023-11-10T09:29:56.791Z,2.50
2023-11-10T09:34:59.003Z,4.60
2023-11-10T09:40:01.290Z,4.38
2023-11-10T09:45:06.308Z,4.68
2023-11-10T09:50:10.198Z,3.70
2023-11-10T09:55:13.017Z,3.83
2023-11-10T10:00:19.878Z,4.18
2023-11-10T10:05:23.032Z,2.90
2023-11-10T10:10:27.927Z,2.72
2023-11-10T10:15:33.145Z,4.68
2023-11-10T10:20:38.677Z,4.95
2023-11-10T10:25:41.769Z,2.22
2023-11-10T10:35:51.736Z,2.95
2023-11-10T10:40:56.409Z,3.70
2023-11-10T10:46:01.039Z,2.92
2023-11-10T10:51:04.621Z,2.15
2023-11-10T10:56:09.849Z,2.58
2023-11-10T11:01:17.730Z,2.92
2023-11-10T11:06:33.588Z,2.33
2023-11-10T11:12:07.156Z,1.55
2023-11-10T11:17:42.395Z,1.80
2023-11-10T11:22:45.716Z,2.13
2023-11-10T11:27:58.354Z,6.85
2023-11-10T11:33:07.799Z,1.83
2023-11-10T11:38:10.152Z,5.85
2023-11-10T11:43:13.711Z,2.08
2023-11-10T11:48:18.796Z,2.97
2023-11-10T11:53:23.539Z,2.90
2023-11-10T11:58:26.893Z,2.05
2023-11-10T12:03:30.569Z,2.70
2023-11-10T12:08:32.862Z,1.85
2023-11-10T12:13:35.382Z,2.83
2023-11-10T12:18:38.978Z,3.40
2023-11-10T12:23:41.197Z,2.05
2023-11-10T12:28:45.779Z,1.02
2023-11-10T12:33:49.382Z,1.48
2023-11-10T12:38:52.207Z,2.03
2023-11-10T12:43:55.982Z,1.45
2023-11-10T12:48:59.744Z,1.58
2023-11-10T12:54:05.234Z,1.42
2023-11-10T12:59:08.649Z,2.10
2023-11-10T13:04:12.500Z,1.08
2023-11-10T13:09:19.154Z,7.60
2023-11-10T13:14:21.467Z,1.95
2023-11-10T13:19:25.087Z,2.67
2023-11-10T13:24:27.671Z,1.73
2023-11-10T13:29:30.158Z,16.08
2023-11-10T13:34:33.894Z,12.48
2023-11-10T13:39:36.688Z,6.47
2023-11-10T13:44:39.940Z,2.38
2023-11-10T13:49:43.554Z,1.13
2023-11-10T13:54:46.130Z,2.20
2023-11-10T13:59:48.368Z,1.63
2023-11-10T14:04:51.967Z,7.07
2023-11-10T14:09:54.750Z,4.57
2023-11-10T14:20:00.567Z,2.47
2023-11-10T14:25:05.909Z,3.45
2023-11-10T14:30:09.590Z,7.97
2023-11-10T14:35:13.727Z,5.07
2023-11-10T14:40:18.833Z,15.60
2023-11-10T14:45:23.065Z,7.78
2023-11-10T14:50:36.509Z,5.57
2023-11-10T14:55:39.968Z,9.45
2023-11-10T15:00:42.690Z,9.43
2023-11-10T15:05:49.764Z,4.55
2023-11-10T15:10:52.179Z,9.13
2023-11-10T15:15:54.423Z,9.20
2023-11-10T15:20:58.081Z,16.15
2023-11-10T15:26:01.209Z,13.50
2023-11-10T15:31:07.750Z,7.88
2023-11-10T15:36:11.908Z,10.60
2023-11-10T15:41:14.109Z,11.30
2023-11-10T15:46:16.492Z,14.85
2023-11-10T15:51:20.117Z,10.75
2023-11-10T15:56:22.315Z,13.50
2023-11-10T16:01:25.177Z,17.08
2023-11-10T16:11:34.427Z,15.40
2023-11-10T16:16:36.700Z,13.52
2023-11-10T16:21:40.299Z,16.77
2023-11-10T16:26:42.558Z,15.95
2023-11-10T16:31:45.166Z,18.10
2023-11-10T16:36:49.159Z,18.60
2023-11-10T16:41:54.344Z,45.70
2023-11-10T16:46:56.849Z,36.85
2023-11-10T16:52:01.015Z,29.45
2023-11-10T16:57:05.237Z,28.92
2023-11-10T17:02:07.893Z,30.67
2023-11-10T17:07:11.629Z,35.65
2023-11-10T17:12:14.725Z,37.70
2023-11-10T17:17:22.864Z,56.97
2023-11-10T17:22:26.478Z,45.53
2023-11-10T17:27:28.793Z,45.53
2023-11-10T17:32:31.071Z,57.28
2023-11-10T17:37:34.686Z,58.33
2023-11-10T17:42:36.941Z,58.10
2023-11-10T17:47:41.818Z,44.17
2023-11-10T17:52:45.587Z,56.00
2023-11-10T17:57:48.771Z,40.35
2023-11-10T18:02:54.065Z,44.67
2023-11-10T18:07:59.315Z,41.55
2023-11-10T18:13:01.532Z,52.05
2023-11-10T18:18:04.230Z,53.92
2023-11-10T18:23:08.607Z,50.13
2023-11-10T18:28:12.964Z,54.13
2023-11-10T18:33:15.336Z,45.28
2023-11-10T18:38:18.966Z,38.10
2023-11-10T18:43:21.198Z,25.05
2023-11-10T18:48:23.690Z,27.67
2023-11-10T18:53:27.551Z,34.03
2023-11-10T18:58:29.726Z,34.92
2023-11-10T19:03:32.001Z,48.30
2023-11-10T19:08:37.888Z,45.72
2023-11-10T19:13:40.301Z,53.88
2023-11-10T19:18:42.898Z,37.92
2023-11-10T19:23:46.499Z,20.80
2023-11-10T19:28:49.517Z,22.05
2023-11-10T19:33:51.850Z,12.55
2023-11-10T19:38:55.526Z,23.00
2023-11-10T19:44:00.560Z,6.93
2023-11-10T19:49:02.829Z,7.53
2023-11-10T20:04:20.228Z,2.53
2023-11-10T20:09:24.261Z,1.80
2023-11-10T20:14:26.552Z,2.00
2023-11-10T20:19:28.881Z,3.22
2023-11-10T20:24:33.139Z,1.77
2023-11-10T20:29:35.625Z,0.95
2023-11-10T20:34:37.851Z,2.60
2023-11-10T20:39:41.856Z,2.40
2023-11-10T20:44:44.696Z,2.67
2023-11-10T20:49:46.881Z,2.45
2023-11-10T20:54:50.564Z,1.52
2023-11-10T20:59:52.844Z,1.13
2023-11-10T21:04:55.035Z,1.13
2023-11-10T21:09:59.327Z,1.80
2023-11-10T21:15:02.179Z,1.67
2023-11-10T21:20:07.024Z,5.85
2023-11-10T21:25:10.657Z,8.32
2023-11-10T21:30:13.181Z,12.45
2023-11-10T21:35:16.331Z,7.15
2023-11-10T21:40:22.482Z,8.05
2023-11-10T21:45:26.789Z,8.30
2023-11-10T21:50:29.064Z,9.43
2023-11-10T21:55:33.587Z,6.10
2023-11-10T22:00:36.339Z,5.25
2023-11-10T22:05:39.351Z,6.35
2023-11-10T22:10:43.702Z,5.00
2023-11-10T22:15:46.015Z,4.90
2023-11-10T22:20:48.341Z,3.25
2023-11-10T22:25:52.001Z,3.50
2023-11-10T22:30:54.310Z,1.38
2023-11-10T22:35:58.790Z,2.47
2023-11-10T22:41:02.382Z,1.27
2023-11-10T22:46:06.848Z,1.80
2023-11-10T22:51:09.399Z,1.85
2023-11-10T22:56:13.038Z,0.60
2023-11-10T23:01:15.745Z,1.33
2023-11-10T23:06:18.679Z,2.88
2023-11-10T23:16:24.500Z,1.70
2023-11-10T23:21:28.164Z,1.80
2023-11-10T23:26:31.778Z,1.58
2023-11-10T23:31:34.492Z,4.30
2023-11-10T23:36:38.128Z,8.00
2023-11-10T23:41:42.141Z,7.63
2023-11-10T23:46:44.395Z,9.85
2023-11-10T23:51:46.749Z,6.22
2023-11-10T23:56:50.467Z,8.82
